Time;durP1;ratioP1;P1;durP2;ratioP2;P2;SDS_P1;SDS_P2;PMS_P1;PMS_P2;Temp;Humidity;BMP_temperature;BMP_pressure;BME280_temperature;BME280_humidity;BME280_pressure;Samples;Min_cycle;Max_cycle;Signal;HPM_P1;HPM_P2
2023/12/21 00:00:19;;;;;;;17.73;10.18;;;;;;;3.95;100.00;99954.91;5091003;28;20044;-41
2023/12/21 00:02:47;;;;;;;16.80;9.52;;;;;;;3.94;100.00;99964.59;5091040;28;20048;-40
2023/12/21 00:05:16;;;;;;;16.80;10.27;;;;;;;4.01;100.00;99950.25;5110602;28;20127;-40
2023/12/21 00:07:44;;;;;;;16.83;9.63;;;;;;;4.03;100.00;99953.69;5111483;28;20052;-41
2023/12/21 00:10:13;;;;;;;13.60;9.05;;;;;;;4.01;100.00;99947.63;5115474;28;20050;-43
2023/12/21 00:12:42;;;;;;;16.88;9.57;;;;;;;3.96;100.00;99949.59;5115420;28;20084;-40
2023/12/21 00:15:10;;;;;;;16.02;9.18;;;;;;;4.02;100.00;99946.69;5102353;28;20054;-41
2023/12/21 00:17:40;;;;;;;14.25;9.15;;;;;;;4.00;100.00;99943.25;5095262;28;20075;-41
2023/12/21 00:20:10;;;;;;;14.02;8.13;;;;;;;3.99;100.00;99941.56;5097783;28;20063;-40
2023/12/21 00:22:39;;;;;;;14.38;8.75;;;;;;;3.89;100.00;99936.69;5112700;28;20173;-42
2023/12/21 00:25:07;;;;;;;15.10;9.48;;;;;;;4.01;100.00;99944.97;5096293;28;20101;-40
2023/12/21 00:27:36;;;;;;;12.18;6.72;;;;;;;4.18;100.00;99946.13;5115587;28;20097;-42
2023/12/21 00:30:05;;;;;;;9.48;5.78;;;;;;;4.18;100.00;99941.69;5116037;28;20500;-40
2023/12/21 00:32:34;;;;;;;9.00;5.10;;;;;;;4.35;100.00;99937.56;5097541;27;20121;-40
2023/12/21 00:35:05;;;;;;;9.93;4.93;;;;;;;4.42;100.00;99934.56;5095778;28;20044;-40
2023/12/21 00:37:36;;;;;;;10.27;4.82;;;;;;;4.52;100.00;99935.94;5095568;28;20043;-41
2023/12/21 00:40:06;;;;;;;7.90;4.40;;;;;;;4.58;100.00;99924.25;5114009;28;20075;-42
2023/12/21 00:42:36;;;;;;;6.28;3.60;;;;;;;4.64;100.00;99925.81;5096394;27;20126;-40
2023/12/21 00:45:06;;;;;;;6.78;3.45;;;;;;;4.60;100.00;99918.00;5094853;28;20040;-42
2023/12/21 00:47:34;;;;;;;6.65;3.90;;;;;;;4.76;100.00;99922.66;5094695;28;20047;-43
2023/12/21 00:50:04;;;;;;;4.97;2.90;;;;;;;4.72;100.00;99918.41;5096104;28;20492;-41
2023/12/21 00:52:33;;;;;;;5.75;2.20;;;;;;;4.81;100.00;99910.09;5115145;28;20095;-39
2023/12/21 00:55:02;;;;;;;4.88;2.40;;;;;;;4.85;100.00;99906.41;5115350;28;20044;-41
2023/12/21 00:57:31;;;;;;;4.97;2.30;;;;;;;4.89;100.00;99902.72;5115516;28;20069;-41
2023/12/21 00:59:59;;;;;;;4.07;2.33;;;;;;;5.02;100.00;99897.75;5075447;28;20056;-41
2023/12/21 01:02:28;;;;;;;5.05;2.00;;;;;;;4.96;100.00;99898.03;5094693;28;20106;-40
2023/12/21 01:04:56;;;;;;;5.15;2.00;;;;;;;4.93;100.00;99904.31;5094225;28;20073;-41
2023/12/21 01:07:26;;;;;;;4.20;2.08;;;;;;;5.05;100.00;99906.41;5094588;28;20051;-41
2023/12/21 01:09:54;;;;;;;6.00;2.33;;;;;;;5.09;100.00;99905.34;5094678;28;20081;-40
2023/12/21 01:12:23;;;;;;;6.10;2.08;;;;;;;5.08;100.00;99903.63;5094644;28;20120;-40
2023/12/21 01:14:52;;;;;;;5.90;2.30;;;;;;;5.10;100.00;99900.94;5098121;28;20476;-40
2023/12/21 01:17:21;;;;;;;4.68;2.20;;;;;;;5.09;100.00;99909.78;5114151;28;20059;-41
2023/12/21 01:19:51;;;;;;;4.28;1.85;;;;;;;5.08;100.00;99908.94;5091575;28;20052;-40
2023/12/21 01:22:20;;;;;;;6.45;2.03;;;;;;;5.14;100.00;99903.38;5108853;28;20065;-41
2023/12/21 01:24:50;;;;;;;4.20;1.90;;;;;;;5.12;100.00;99902.59;5093732;28;20057;-41
2023/12/21 01:27:20;;;;;;;5.15;2.28;;;;;;;5.13;100.00;99898.16;5093854;28;20155;-40
2023/12/21 01:29:59;;;;;;;6.63;2.42;;;;;;;5.09;100.00;99894.78;5093546;28;20102;-40
2023/12/21 01:32:28;;;;;;;5.30;2.20;;;;;;;5.15;100.00;99878.66;5093714;28;20055;-41
2023/12/21 01:34:56;;;;;;;3.47;1.92;;;;;;;5.21;100.00;99879.28;5093731;28;20047;-40
2023/12/21 01:37:25;;;;;;;4.88;2.10;;;;;;;5.12;100.00;99877.94;5093520;28;20468;-41
2023/12/21 01:39:55;;;;;;;5.40;2.40;;;;;;;5.04;100.00;99872.13;5104287;28;20068;-39
2023/12/21 01:42:23;;;;;;;5.60;2.20;;;;;;;5.12;100.00;99872.66;5093170;28;20044;-43
2023/12/21 01:44:52;;;;;;;3.47;1.80;;;;;;;5.12;100.00;99859.44;5093286;28;20044;-42
2023/12/21 01:47:20;;;;;;;6.78;2.20;;;;;;;5.17;100.00;99863.56;5098474;28;20507;-40
2023/12/21 01:49:50;;;;;;;4.57;2.15;;;;;;;5.22;100.00;99855.47;5113630;28;20079;-42
2023/12/21 01:52:20;;;;;;;3.95;1.90;;;;;;;5.29;100.00;99858.66;5113773;28;20127;-41
2023/12/21 01:54:49;;;;;;;5.88;2.28;;;;;;;5.22;100.00;99857.25;5098850;28;20063;-40
2023/12/21 01:57:19;;;;;;;7.40;2.20;;;;;;;5.22;100.00;99847.53;5110666;28;20481;-41
2023/12/21 01:59:48;;;;;;;4.95;2.10;;;;;;;5.17;100.00;99834.50;5113538;28;20087;-42
2023/12/21 02:02:16;;;;;;;6.07;1.98;;;;;;;5.20;100.00;99844.06;5095734;28;20109;-41
2023/12/21 02:04:45;;;;;;;3.38;1.77;;;;;;;5.17;100.00;99838.94;5093121;28;20048;-40
2023/12/21 02:07:13;;;;;;;3.75;1.90;;;;;;;5.13;100.00;99842.66;5092911;28;20056;-40
2023/12/21 02:09:42;;;;;;;4.47;1.90;;;;;;;5.24;100.00;99845.66;5092775;28;20462;-40
2023/12/21 02:12:11;;;;;;;4.95;2.00;;;;;;;5.27;100.00;99834.94;5092533;28;20044;-41
2023/12/21 02:14:40;;;;;;;4.18;1.80;;;;;;;5.29;100.00;99833.09;5092957;28;20115;-40
2023/12/21 02:17:13;;;;;;;4.40;1.73;;;;;;;5.32;100.00;99832.09;5098298;28;20035;-41
2023/12/21 02:19:42;;;;;;;4.35;2.13;;;;;;;5.36;100.00;99821.31;5113151;28;20070;-40
2023/12/21 02:22:11;;;;;;;3.63;1.88;;;;;;;5.40;100.00;99824.66;5112707;28;20093;-40
2023/12/21 02:24:41;;;;;;;6.13;2.08;;;;;;;5.42;100.00;99828.13;5113097;28;20039;-41
2023/12/21 02:27:10;;;;;;;4.95;1.77;;;;;;;5.45;100.00;99822.66;5112657;28;20075;-40
2023/12/21 02:29:38;;;;;;;6.47;1.83;;;;;;;5.44;100.00;99823.59;5111582;28;20485;-39
2023/12/21 02:32:07;;;;;;;4.78;1.73;;;;;;;5.48;100.00;99817.22;5097025;28;20058;-40
2023/12/21 02:34:35;;;;;;;3.58;1.80;;;;;;;5.52;100.00;99810.88;5101395;28;20056;-41
2023/12/21 02:37:04;;;;;;;4.53;1.90;;;;;;;5.53;100.00;99806.44;5099403;28;20163;-40
2023/12/21 02:39:32;;;;;;;5.70;1.70;;;;;;;5.57;100.00;99800.94;5112784;28;20113;-40
2023/12/21 02:42:02;;;;;;;3.47;1.80;;;;;;;5.63;100.00;99800.66;5112813;28;20047;-40
2023/12/21 02:44:31;;;;;;;4.97;1.90;;;;;;;5.68;100.00;99803.06;5112545;28;20385;-41
2023/12/21 02:46:59;;;;;;;5.05;1.83;;;;;;;5.66;100.00;99802.28;5112427;28;20116;-41
2023/12/21 02:49:27;;;;;;;3.65;1.90;;;;;;;5.70;100.00;99795.94;5112524;28;20047;-42
2023/12/21 02:51:56;;;;;;;4.18;1.90;;;;;;;5.74;100.00;99787.78;5099072;28;20409;-40
2023/12/21 02:54:26;;;;;;;6.57;1.83;;;;;;;5.69;100.00;99784.50;5092361;28;20464;-41
2023/12/21 02:56:54;;;;;;;4.78;2.03;;;;;;;5.68;100.00;99782.75;5092140;28;20044;-41
2023/12/21 02:59:24;;;;;;;4.30;2.03;;;;;;;5.67;100.00;99781.03;5092745;28;20044;-41
2023/12/21 03:01:52;;;;;;;3.55;1.63;;;;;;;5.64;100.00;99785.63;5112520;28;20047;-41
2023/12/21 03:04:23;;;;;;;4.78;2.00;;;;;;;5.75;100.00;99783.34;5112231;28;20523;-42
2023/12/21 03:06:53;;;;;;;4.47;2.03;;;;;;;5.74;100.00;99790.41;5111806;28;20082;-41
2023/12/21 03:09:22;;;;;;;5.43;1.90;;;;;;;5.75;100.00;99789.47;5108906;28;20052;-40
2023/12/21 03:11:50;;;;;;;4.05;1.70;;;;;;;5.81;100.00;99795.44;5091820;28;20086;-41
2023/12/21 03:14:22;;;;;;;5.70;1.80;;;;;;;5.77;100.00;99789.41;5109112;28;20075;-40
2023/12/21 03:16:52;;;;;;;4.78;2.03;;;;;;;5.81;100.00;99784.84;5107266;28;20113;-41
2023/12/21 03:19:20;;;;;;;4.22;1.90;;;;;;;5.83;100.00;99790.91;5091974;28;20048;-41
2023/12/21 03:21:48;;;;;;;4.97;1.80;;;;;;;5.82;100.00;99786.56;5092303;28;20048;-40
2023/12/21 03:24:17;;;;;;;3.15;1.60;;;;;;;5.81;100.00;99776.91;5092250;28;20055;-41
2023/12/21 03:26:46;;;;;;;4.43;1.98;;;;;;;5.81;100.00;99776.91;5092409;28;20132;-42
2023/12/21 03:29:15;;;;;;;4.50;1.80;;;;;;;5.81;100.00;99774.25;5091969;28;20048;-41
2023/12/21 03:31:44;;;;;;;7.05;2.17;;;;;;;5.80;100.00;99770.75;5092432;28;20101;-41
2023/12/21 03:34:14;;;;;;;4.15;2.08;;;;;;;5.78;100.00;99777.03;5091628;28;20502;-40
2023/12/21 03:36:42;;;;;;;5.00;1.75;;;;;;;5.82;100.00;99775.97;5095490;28;20560;-41
2023/12/21 03:39:11;;;;;;;7.43;3.17;;;;;;;5.79;100.00;99770.78;5098296;28;20051;-44
2023/12/21 03:41:40;;;;;;;7.03;4.38;;;;;;;5.80;100.00;99778.69;5092437;28;20051;-40
2023/12/21 03:44:08;;;;;;;7.30;3.30;;;;;;;5.78;100.00;99771.72;5111412;28;20066;-41
2023/12/21 03:46:36;;;;;;;7.72;3.55;;;;;;;5.82;100.00;99768.03;5111652;28;20434;-42
2023/12/21 03:49:05;;;;;;;7.18;2.83;;;;;;;5.80;100.00;99754.88;5095069;28;20090;-42
2023/12/21 03:51:34;;;;;;;6.60;3.22;;;;;;;5.79;100.00;99757.56;5099897;28;20051;-42
2023/12/21 03:54:03;;;;;;;6.43;3.30;;;;;;;5.74;100.00;99753.38;5109949;28;20044;-42
2023/12/21 03:56:31;;;;;;;5.60;2.88;;;;;;;5.74;100.00;99750.72;5092727;28;20109;-41
2023/12/21 03:58:59;;;;;;;6.60;2.80;;;;;;;5.74;100.00;99752.50;5100172;28;20055;-40
2023/12/21 04:01:29;;;;;;;5.40;2.20;;;;;;;5.78;100.00;99739.97;5111456;28;20078;-41
2023/12/21 04:03:58;;;;;;;7.53;2.10;;;;;;;5.75;100.00;99748.94;5111443;28;20048;-40
2023/12/21 04:06:26;;;;;;;4.18;1.83;;;;;;;5.78;100.00;99750.56;5111396;28;20136;-41
2023/12/21 04:08:56;;;;;;;3.47;1.60;;;;;;;5.80;100.00;99741.63;5098049;28;20083;-41
2023/12/21 04:11:24;;;;;;;6.07;2.13;;;;;;;5.82;100.00;99731.81;5110515;28;20055;-49
2023/12/21 04:13:53;;;;;;;4.18;1.90;;;;;;;5.86;100.00;99733.38;5111410;28;20075;-41
2023/12/21 04:16:21;;;;;;;5.32;2.40;;;;;;;5.83;100.00;99733.53;5111391;28;20112;-43
2023/12/21 04:18:49;;;;;;;4.35;2.60;;;;;;;5.96;100.00;99729.38;5111452;28;20044;-42
2023/12/21 04:21:18;;;;;;;5.75;2.88;;;;;;;5.98;100.00;99732.84;5100909;28;20136;-41
2023/12/21 04:23:47;;;;;;;6.03;2.95;;;;;;;6.02;100.00;99728.22;5109363;28;20086;-42
2023/12/21 04:26:20;;;;;;;7.47;3.30;;;;;;;6.04;100.00;99718.41;5106919;28;20060;-40
2023/12/21 04:28:50;;;;;;;5.70;3.20;;;;;;;6.02;100.00;99717.63;5091014;28;20048;-42
2023/12/21 04:31:19;;;;;;;8.13;3.65;;;;;;;6.05;100.00;99717.47;5092520;28;20143;-40
2023/12/21 04:33:50;;;;;;;9.63;3.90;;;;;;;6.07;100.00;99707.66;5111007;28;20043;-41
2023/12/21 04:36:19;;;;;;;8.38;4.20;;;;;;;6.03;100.00;99714.06;5111094;28;20208;-41
2023/12/21 04:38:52;;;;;;;;;;;;;;;6.04;100.00;99710.47;5111864;28;20054;-42
2023/12/21 04:41:22;;;;;;;11.70;5.60;;;;;;;5.93;100.00;99713.66;5108093;28;20014;-41
2023/12/21 04:43:50;;;;;;;12.23;6.15;;;;;;;5.96;100.00;99702.91;5111353;28;20035;-41
2023/12/21 04:46:19;;;;;;;13.40;6.82;;;;;;;6.01;100.00;99697.41;5111116;28;20059;-41
2023/12/21 04:48:47;;;;;;;12.50;7.03;;;;;;;6.07;100.00;99694.41;5111015;28;20062;-40
2023/12/21 04:51:16;;;;;;;12.65;6.47;;;;;;;6.08;100.00;99700.56;5097004;28;20141;-41
2023/12/21 04:53:45;;;;;;;14.07;7.38;;;;;;;6.08;100.00;99696.16;5090864;28;20083;-41
2023/12/21 04:56:13;;;;;;;14.38;7.05;;;;;;;6.10;100.00;99702.22;5113152;28;20054;-41
2023/12/21 04:58:44;;;;;;;14.30;8.15;;;;;;;6.01;100.00;99694.75;5097675;27;20044;-41
2023/12/21 05:01:12;;;;;;;13.50;7.70;;;;;;;6.00;100.00;99703.63;5102954;28;20080;-42
2023/12/21 05:03:40;;;;;;;14.98;8.23;;;;;;;5.94;100.00;99688.91;5094564;28;20127;-41
2023/12/21 05:06:11;;;;;;;14.05;7.65;;;;;;;5.93;100.00;99692.47;5109357;28;20044;-41
2023/12/21 05:08:39;;;;;;;13.43;7.80;;;;;;;5.92;100.00;99679.31;5106652;28;20225;-43
2023/12/21 05:11:08;;;;;;;12.73;7.40;;;;;;;5.86;100.00;99674.28;5105115;28;20043;-40
2023/12/21 05:13:36;;;;;;;12.95;7.05;;;;;;;5.86;100.00;99661.06;5114449;28;20082;-41
2023/12/21 05:16:07;;;;;;;11.80;6.53;;;;;;;5.81;100.00;99666.59;5114371;28;20463;-40
2023/12/21 05:18:36;;;;;;;13.57;6.50;;;;;;;5.68;100.00;99661.03;5114333;28;20066;-41
2023/12/21 05:21:07;;;;;;;12.05;6.57;;;;;;;5.63;100.00;99663.06;5114417;28;20096;-41
2023/12/21 05:23:36;;;;;;;11.82;6.90;;;;;;;5.66;100.00;99660.25;5111605;27;20052;-42
2023/12/21 05:26:11;;;;;;;15.38;6.80;;;;;;;5.64;100.00;99659.47;5093690;28;20067;-40
2023/12/21 05:28:41;;;;;;;13.90;6.68;;;;;;;5.64;100.00;99667.44;5100392;28;20047;-41
2023/12/21 05:31:12;;;;;;;13.73;7.13;;;;;;;5.64;100.00;99662.13;5114508;28;20043;-40
2023/12/21 05:33:41;;;;;;;11.48;6.32;;;;;;;5.63;100.00;99657.78;5095669;28;20428;-41
2023/12/21 05:36:19;;;;;;;12.95;6.57;;;;;;;5.65;100.00;99655.91;5093451;28;20131;-41
2023/12/21 05:38:48;;;;;;;11.02;6.93;;;;;;;5.58;100.00;99654.50;5093431;28;20044;-40
2023/12/21 05:41:16;;;;;;;11.15;6.38;;;;;;;5.60;100.00;99657.94;5093688;28;20044;-40
2023/12/21 05:43:44;;;;;;;14.00;6.80;;;;;;;5.50;100.00;99651.38;5093687;28;20439;-41
2023/12/21 05:46:14;;;;;;;10.65;6.18;;;;;;;5.39;100.00;99656.31;5106929;28;20051;-43
2023/12/21 05:48:42;;;;;;;10.38;5.78;;;;;;;5.37;100.00;99651.09;5093359;28;20044;-40
2023/12/21 05:51:11;;;;;;;10.63;5.00;;;;;;;5.32;100.00;99652.28;5107103;28;20043;-42
2023/12/21 05:53:39;;;;;;;11.52;5.40;;;;;;;5.30;100.00;99647.03;5102037;28;20516;-41
2023/12/21 05:56:08;;;;;;;10.65;5.30;;;;;;;5.34;100.00;99642.47;5093445;28;20404;-42
2023/12/21 05:58:37;;;;;;;9.00;5.10;;;;;;;5.31;100.00;99650.56;5093325;28;20053;-41
2023/12/21 06:01:05;;;;;;;10.57;5.68;;;;;;;5.25;100.00;99645.56;5093183;28;20052;-43
2023/12/21 06:03:35;;;;;;;12.02;5.70;;;;;;;5.26;100.00;99636.69;5093288;28;20095;-40
2023/12/21 06:06:04;;;;;;;9.77;4.70;;;;;;;5.24;100.00;99638.56;5092060;28;20409;-41
2023/12/21 06:08:33;;;;;;;10.68;5.15;;;;;;;4.94;100.00;99639.09;5093061;28;20211;-41
2023/12/21 06:11:01;;;;;;;10.38;5.43;;;;;;;4.77;100.00;99639.00;5102705;28;20043;-40
2023/12/21 06:13:30;;;;;;;9.18;5.03;;;;;;;4.52;100.00;99633.97;5107231;28;20044;-41
2023/12/21 06:15:58;;;;;;;13.32;5.40;;;;;;;4.46;100.00;99632.47;5091757;28;20408;-40
2023/12/21 06:18:30;;;;;;;10.85;5.57;;;;;;;4.36;100.00;99633.81;5090835;28;20070;-42
2023/12/21 06:21:00;;;;;;;10.98;5.68;;;;;;;4.27;100.00;99631.59;5101450;28;20105;-39
2023/12/21 06:23:28;;;;;;;11.50;5.28;;;;;;;4.26;100.00;99628.09;5096527;28;20040;-40
2023/12/21 06:25:56;;;;;;;10.48;5.35;;;;;;;4.23;100.00;99622.91;5091089;28;20080;-42
2023/12/21 06:28:25;;;;;;;10.60;6.15;;;;;;;4.20;100.00;99622.22;5091101;28;20044;-40
2023/12/21 06:30:53;;;;;;;10.45;5.55;;;;;;;4.18;100.00;99624.94;5099710;28;20051;-42
2023/12/21 06:33:21;;;;;;;12.63;5.70;;;;;;;4.27;100.00;99624.53;5076528;28;20491;-39
2023/12/21 06:35:50;;;;;;;12.40;6.53;;;;;;;4.23;100.00;99616.78;5096079;28;20052;-39
2023/12/21 06:38:19;;;;;;;15.50;6.78;;;;;;;4.13;100.00;99620.75;5089855;28;20044;-43
2023/12/21 06:40:48;;;;;;;13.88;6.82;;;;;;;4.16;100.00;99612.72;5092026;28;20048;-39
2023/12/21 06:43:16;;;;;;;13.68;7.30;;;;;;;4.08;100.00;99606.91;5093247;28;20048;-40
2023/12/21 06:45:47;;;;;;;12.05;6.55;;;;;;;3.91;100.00;99605.88;5092801;28;20125;-41
2023/12/21 06:48:15;;;;;;;15.75;6.85;;;;;;;3.92;100.00;99612.84;5091376;28;20052;-42
2023/12/21 06:50:45;;;;;;;12.00;6.97;;;;;;;3.84;100.00;99614.97;5101057;28;20158;-40
2023/12/21 06:53:15;;;;;;;14.90;7.30;;;;;;;3.76;100.00;99618.84;5113880;28;20130;-41
2023/12/21 06:55:45;;;;;;;16.40;7.28;;;;;;;3.86;100.00;99615.78;5105194;28;20059;-40
2023/12/21 06:58:14;;;;;;;14.27;8.05;;;;;;;3.73;100.00;99612.78;5092760;28;20052;-41
2023/12/21 07:00:42;;;;;;;18.45;8.73;;;;;;;3.73;100.00;99610.16;5074299;28;20048;-44
2023/12/21 07:03:10;;;;;;;19.02;9.88;;;;;;;3.69;100.00;99605.06;5076435;28;20071;-40
2023/12/21 07:05:39;;;;;;;17.73;9.60;;;;;;;3.73;100.00;99617.19;5085708;28;20082;-39
2023/12/21 07:08:08;;;;;;;19.20;10.07;;;;;;;3.73;100.00;99615.41;5105859;28;20039;-42
2023/12/21 07:10:36;;;;;;;17.45;9.60;;;;;;;3.70;100.00;99627.88;5111600;28;20587;-41
2023/12/21 07:13:06;;;;;;;20.42;10.88;;;;;;;3.74;100.00;99625.03;5098496;28;20723;-41
2023/12/21 07:15:35;;;;;;;21.98;11.32;;;;;;;3.69;100.00;99615.63;5095409;28;20048;-40
2023/12/21 07:18:03;;;;;;;21.73;11.65;;;;;;;3.77;100.00;99591.56;5091710;28;20071;-40
2023/12/21 07:20:32;;;;;;;26.33;12.82;;;;;;;3.63;100.00;99584.22;5093787;28;20101;-40
2023/12/21 07:23:00;;;;;;;23.98;12.80;;;;;;;3.56;100.00;99582.75;5092997;28;20097;-41
2023/12/21 07:25:28;;;;;;;25.15;12.35;;;;;;;3.60;100.00;99581.72;5092639;28;20044;-41
2023/12/21 07:27:57;;;;;;;24.90;13.98;;;;;;;3.47;100.00;99577.88;5091811;28;20573;-41
2023/12/21 07:30:26;;;;;;;23.80;14.25;;;;;;;3.36;100.00;99592.34;5097167;28;20488;-39
2023/12/21 07:32:55;;;;;;;24.80;15.32;;;;;;;3.34;100.00;99591.56;5098218;28;20164;-39
2023/12/21 07:35:26;;;;;;;27.17;15.15;;;;;;;3.33;100.00;99596.91;5096278;28;20397;-41
2023/12/21 07:37:54;;;;;;;27.08;14.88;;;;;;;3.21;100.00;99578.97;5100371;28;20079;-40
2023/12/21 07:40:22;;;;;;;25.08;15.23;;;;;;;3.30;100.00;99586.50;5097184;28;20420;-40
2023/12/21 07:42:50;;;;;;;27.80;15.98;;;;;;;3.44;100.00;99589.41;5091610;28;20071;-42
2023/12/21 07:45:20;;;;;;;28.67;16.67;;;;;;;3.42;100.00;99589.47;5099215;28;20058;-40
2023/12/21 07:47:50;;;;;;;28.88;17.73;;;;;;;3.45;100.00;99581.44;5089769;28;20127;-42
2023/12/21 07:50:18;;;;;;;31.02;17.02;;;;;;;3.49;100.00;99583.97;5088572;28;20048;-43
2023/12/21 07:52:48;;;;;;;28.92;17.20;;;;;;;3.60;100.00;99579.94;5098138;28;20048;-40
2023/12/21 07:55:20;;;;;;;29.35;16.90;;;;;;;3.77;100.00;99571.31;5106141;28;20048;-41
2023/12/21 07:57:49;;;;;;;26.95;16.48;;;;;;;3.81;100.00;99562.34;5093680;28;20592;-40
2023/12/21 08:00:17;;;;;;;30.35;16.60;;;;;;;3.88;100.00;99566.44;5092269;28;20399;-41
2023/12/21 08:02:46;;;;;;;26.05;15.73;;;;;;;3.90;100.00;99566.34;5097867;28;20076;-41
2023/12/21 08:05:16;;;;;;;28.55;16.48;;;;;;;4.06;100.00;99556.84;5093951;28;20059;-42
2023/12/21 08:07:44;;;;;;;27.70;16.10;;;;;;;4.15;100.00;99556.44;5093919;28;20102;-40
2023/12/21 08:10:13;;;;;;;29.33;17.40;;;;;;;4.28;100.00;99567.28;5096213;28;20051;-40
2023/12/21 08:12:42;;;;;;;29.88;17.33;;;;;;;4.32;100.00;99564.44;5098082;28;20040;-40
2023/12/21 08:15:14;;;;;;;29.95;16.67;;;;;;;4.45;100.00;99564.75;5096280;28;20051;-40
2023/12/21 08:17:43;;;;;;;27.23;16.50;;;;;;;4.53;100.00;99565.22;5095057;28;20056;-41
2023/12/21 08:20:15;;;;;;;28.35;16.20;;;;;;;4.53;100.00;99567.00;5095991;28;20070;-40
2023/12/21 08:22:45;;;;;;;28.80;17.00;;;;;;;4.66;100.00;99564.69;5095764;28;20054;-41
2023/12/21 08:25:13;;;;;;;32.53;17.65;;;;;;;4.72;100.00;99556.44;5094236;28;20051;-40
2023/12/21 08:27:42;;;;;;;30.42;17.10;;;;;;;4.75;100.00;99557.19;5093635;28;20059;-40
2023/12/21 08:30:12;;;;;;;30.23;17.02;;;;;;;4.71;100.00;99565.31;5100139;28;20416;-40
2023/12/21 08:32:41;;;;;;;29.95;16.73;;;;;;;4.72;100.00;99554.66;5098647;28;20112;-40
2023/12/21 08:35:09;;;;;;;29.23;16.60;;;;;;;4.84;100.00;99561.16;5101121;28;20048;-39
2023/12/21 08:37:37;;;;;;;31.27;17.00;;;;;;;4.82;100.00;99566.50;5099369;28;20047;-40
2023/12/21 08:40:09;;;;;;;29.20;16.38;;;;;;;4.88;100.00;99568.00;5098988;28;20040;-45
2023/12/21 08:42:37;;;;;;;28.85;16.48;;;;;;;4.93;100.00;99573.09;5100004;28;20052;-40
2023/12/21 08:45:06;;;;;;;28.10;16.20;;;;;;;4.94;100.00;99574.81;5096304;28;20051;-39
2023/12/21 08:47:40;;;;;;;29.08;16.02;;;;;;;4.86;100.00;99575.16;5100140;28;20072;-41
2023/12/21 08:50:11;;;;;;;29.08;16.00;;;;;;;4.95;100.00;99564.16;5105639;28;20051;-41
2023/12/21 08:52:41;;;;;;;28.60;16.08;;;;;;;4.92;100.00;99563.41;5103337;28;20139;-40
2023/12/21 08:55:11;;;;;;;26.13;15.52;;;;;;;4.97;100.00;99557.00;5104397;28;20044;-40
2023/12/21 08:57:40;;;;;;;29.52;15.52;;;;;;;4.96;100.00;99557.94;5103497;28;20043;-41
2023/12/21 09:00:12;;;;;;;25.67;15.13;;;;;;;4.98;100.00;99557.84;5102510;28;20065;-41
2023/12/21 09:02:42;;;;;;;28.05;15.15;;;;;;;5.01;100.00;99553.25;5097003;28;20097;-42
2023/12/21 09:05:12;;;;;;;27.02;14.68;;;;;;;5.16;100.00;99547.25;5096264;28;20101;-42
2023/12/21 09:07:41;;;;;;;27.40;15.32;;;;;;;5.17;100.00;99548.94;5095455;28;20054;-42
2023/12/21 09:10:11;;;;;;;26.92;15.20;;;;;;;5.25;100.00;99553.00;5096831;28;20044;-41
2023/12/21 09:12:40;;;;;;;24.17;13.70;;;;;;;5.33;100.00;99553.50;5096939;28;20044;-39
2023/12/21 09:15:09;;;;;;;24.00;14.07;;;;;;;5.32;100.00;99549.13;5112346;28;20079;-41
2023/12/21 09:17:38;;;;;;;22.73;12.43;;;;;;;5.21;100.00;99532.91;5094789;28;20052;-42
2023/12/21 09:20:09;;;;;;;23.58;13.60;;;;;;;5.30;100.00;99532.47;5093429;28;20500;-40
2023/12/21 09:22:37;;;;;;;24.83;14.70;;;;;;;5.30;100.00;99524.53;5093410;28;20101;-40
2023/12/21 09:25:07;;;;;;;25.80;14.52;;;;;;;5.31;100.00;99523.63;5096185;28;20137;-41
2023/12/21 09:27:37;;;;;;;27.38;15.25;;;;;;;5.30;100.00;99519.25;5092171;28;20044;-41
2023/12/21 09:30:07;;;;;;;28.48;15.55;;;;;;;5.24;100.00;99511.63;5093785;28;20063;-44
2023/12/21 09:32:36;;;;;;;26.67;14.95;;;;;;;5.13;100.00;99507.75;5097346;28;20071;-41
2023/12/21 09:35:05;;;;;;;28.20;16.00;;;;;;;5.13;100.00;99499.81;5095640;28;20465;-39
2023/12/21 09:37:35;;;;;;;26.95;15.40;;;;;;;5.17;100.00;99493.44;5095434;28;20067;-40
2023/12/21 09:40:06;;;;;;;24.75;14.93;;;;;;;5.24;100.00;99480.75;5098576;28;20130;-41
2023/12/21 09:42:42;;;;;;;28.63;15.55;;;;;;;5.22;100.00;99492.38;5097742;28;20066;-40
2023/12/21 09:45:11;;;;;;;24.65;15.38;;;;;;;5.27;100.00;99490.31;5099155;28;20124;-39
2023/12/21 09:47:40;;;;;;;25.35;14.35;;;;;;;5.39;100.00;99479.13;5096969;28;20036;-40
2023/12/21 09:50:09;;;;;;;23.98;13.43;;;;;;;5.55;100.00;99463.31;5099570;28;20036;-40
2023/12/21 09:52:39;;;;;;;23.67;12.95;;;;;;;5.60;100.00;99456.88;5100865;28;20055;-41
2023/12/21 09:55:11;;;;;;;21.73;12.48;;;;;;;5.74;100.00;99464.91;5101432;28;20474;-41
2023/12/21 09:57:41;;;;;;;22.08;12.98;;;;;;;5.74;100.00;99461.41;5094524;28;20040;-41
2023/12/21 10:00:11;;;;;;;23.38;12.60;;;;;;;5.83;100.00;99474.16;5100396;28;20048;-44
2023/12/21 10:02:40;;;;;;;23.73;13.27;;;;;;;5.83;100.00;99465.38;5097205;28;20066;-40
2023/12/21 10:05:09;;;;;;;22.33;13.43;;;;;;;5.91;100.00;99458.78;5097827;28;20047;-40
2023/12/21 10:07:39;;;;;;;25.60;14.38;;;;;;;5.92;100.00;99451.69;5095265;28;20079;-40
2023/12/21 10:10:09;;;;;;;23.70;14.10;;;;;;;5.90;100.00;99441.19;5100751;28;20495;-41
2023/12/21 10:12:41;;;;;;;31.00;16.20;;;;;;;5.91;100.00;99431.44;5099430;28;20147;-41
2023/12/21 10:15:11;;;;;;;22.08;13.73;;;;;;;5.83;100.00;99430.97;5100464;28;20404;-41
2023/12/21 10:17:40;;;;;;;24.92;14.10;;;;;;;5.87;100.00;99417.47;5099702;28;20044;-41
2023/12/21 10:20:11;;;;;;;23.33;13.15;;;;;;;5.85;100.00;99407.91;5101703;28;20040;-41
2023/12/21 10:22:41;;;;;;;22.88;13.38;;;;;;;5.88;100.00;99398.00;5113027;28;20055;-41
2023/12/21 10:25:10;;;;;;;22.52;12.40;;;;;;;6.02;100.00;99386.72;5112545;28;20142;-41
2023/12/21 10:27:40;;;;;;;23.17;12.73;;;;;;;6.11;100.00;99383.56;5092968;28;20044;-41
2023/12/21 10:30:11;;;;;;;21.13;12.00;;;;;;;6.25;100.00;99386.28;5102375;28;20043;-41
2023/12/21 10:32:40;;;;;;;20.77;11.18;;;;;;;6.29;100.00;99381.69;5096399;28;20044;-41
2023/12/21 10:35:08;;;;;;;19.60;11.38;;;;;;;6.47;100.00;99374.50;5097731;28;20075;-41
2023/12/21 10:37:39;;;;;;;20.65;10.80;;;;;;;6.47;100.00;99366.53;5095365;28;20709;-41
2023/12/21 10:40:14;;;;;;;22.40;11.55;;;;;;;6.43;100.00;99363.19;5094754;28;20047;-42
2023/12/21 10:42:44;;;;;;;22.00;11.10;;;;;;;6.46;100.00;99346.25;5107145;28;20110;-43
2023/12/21 10:45:16;;;;;;;22.38;11.95;;;;;;;6.40;100.00;99328.94;5098942;28;20048;-41
2023/12/21 10:48:06;;;;;;;21.67;11.95;;;;;;;6.50;100.00;99316.00;5095436;28;20469;-42
2023/12/21 10:50:36;;;;;;;20.95;11.45;;;;;;;6.45;100.00;99302.16;5098801;28;20055;-41
2023/12/21 10:53:07;;;;;;;17.85;10.57;;;;;;;6.47;100.00;99302.97;5099470;28;20075;-41
2023/12/21 10:55:37;;;;;;;19.40;11.05;;;;;;;6.50;100.00;99284.22;5093598;28;20408;-40
2023/12/21 10:58:07;;;;;;;20.92;11.30;;;;;;;6.56;100.00;99278.53;5096991;28;20047;-43
2023/12/21 11:00:38;;;;;;;21.55;11.57;;;;;;;6.59;100.00;99257.19;5097432;28;20040;-41
2023/12/21 11:03:08;;;;;;;21.42;11.93;;;;;;;6.64;100.00;99252.44;5100765;28;20114;-41
2023/12/21 11:05:39;;;;;;;21.42;11.00;;;;;;;6.75;100.00;99250.00;5100614;28;20044;-41
2023/12/21 11:08:08;;;;;;;18.80;10.38;;;;;;;6.99;100.00;99242.38;5100147;28;20043;-41
2023/12/21 11:10:38;;;;;;;18.95;9.57;;;;;;;7.28;100.00;99234.41;5097087;27;20132;-41
2023/12/21 11:13:06;;;;;;;17.63;9.95;;;;;;;7.42;100.00;99229.91;5096857;28;20151;-42
2023/12/21 11:15:37;;;;;;;16.27;9.88;;;;;;;7.60;100.00;99219.94;5097727;28;20049;-40
2023/12/21 11:18:09;;;;;;;18.17;10.73;;;;;;;7.67;100.00;99207.13;5097034;28;20048;-43
2023/12/21 11:20:42;;;;;;;16.30;10.23;;;;;;;7.75;100.00;99208.34;5094746;28;20454;-41
2023/12/21 11:23:17;;;;;;;17.20;10.10;;;;;;;7.90;100.00;99211.78;5096926;28;20055;-40
2023/12/21 11:25:55;;;;;;;19.38;10.45;;;;;;;7.91;100.00;99208.19;5096766;28;20101;-40
2023/12/21 11:28:30;;;;;;;19.40;9.35;;;;;;;7.92;100.00;99193.97;5099874;28;20043;-41
2023/12/21 11:31:01;;;;;;;17.30;10.32;;;;;;;7.88;100.00;99195.09;5100530;28;20126;-41
2023/12/21 11:33:29;;;;;;;15.85;9.63;;;;;;;7.96;100.00;99184.84;5098356;28;20048;-44